sensor_id;sensor_type;location;lat;lon;timestamp;P1;P2;P0
66336;PMS1003;53139;45.576;5.304;2023-04-24T00:02:23;1.75;1.00;1.00
66336;PMS1003;53139;45.576;5.304;2023-04-24T00:05:32;1.00;1.00;1.00
66336;PMS1003;53139;45.576;5.304;2023-04-24T00:08:42;1.00;1.00;1.00
66336;PMS1003;53139;45.576;5.304;2023-04-24T00:11:50;1.00;1.00;1.00
66336;PMS1003;53139;45.576;5.304;2023-04-24T00:15:04;1.00;1.00;1.00
66336;PMS1003;53139;45.576;5.304;2023-04-24T00:18:22;1.50;1.50;1.00
66336;PMS1003;53139;45.576;5.304;2023-04-24T00:21:23;1.75;0.50;0.00
66336;PMS1003;53139;45.576;5.304;2023-04-24T00:24:28;1.25;1.00;0.25
66336;PMS1003;53139;45.576;5.304;2023-04-24T00:27:29;2.25;1.75;1.50
66336;PMS1003;53139;45.576;5.304;2023-04-24T00:30:30;2.00;1.00;1.00
66336;PMS1003;53139;45.576;5.304;2023-04-24T00:33:31;1.25;1.25;1.00
66336;PMS1003;53139;45.576;5.304;2023-04-24T00:36:35;1.00;1.00;1.00
66336;PMS1003;53139;45.576;5.304;2023-04-24T00:39:36;1.00;1.00;1.00
66336;PMS1003;53139;45.576;5.304;2023-04-24T00:42:38;1.00;1.00;1.00
66336;PMS1003;53139;45.576;5.304;2023-04-24T00:45:40;3.00;1.00;1.00
66336;PMS1003;53139;45.576;5.304;2023-04-24T00:48:44;0.00;0.00;0.00
66336;PMS1003;53139;45.576;5.304;2023-04-24T00:51:48;2.50;2.50;1.00
66336;PMS1003;53139;45.576;5.304;2023-04-24T00:54:55;2.00;2.00;2.00
66336;PMS1003;53139;45.576;5.304;2023-04-24T00:57:56;1.00;0.75;0.75
66336;PMS1003;53139;45.576;5.304;2023-04-24T01:00:57;1.00;1.00;0.00
66336;PMS1003;53139;45.576;5.304;2023-04-24T01:04:02;1.00;1.00;1.00
66336;PMS1003;53139;45.576;5.304;2023-04-24T01:07:03;1.00;1.00;1.00
66336;PMS1003;53139;45.576;5.304;2023-04-24T01:10:09;2.75;1.00;1.00
66336;PMS1003;53139;45.576;5.304;2023-04-24T01:13:10;2.00;1.75;1.00
66336;PMS1003;53139;45.576;5.304;2023-04-24T01:16:11;1.50;1.00;0.75
66336;PMS1003;53139;45.576;5.304;2023-04-24T01:19:12;3.00;2.00;2.00
66336;PMS1003;53139;45.576;5.304;2023-04-24T01:22:14;1.00;1.00;1.00
66336;PMS1003;53139;45.576;5.304;2023-04-24T01:25:18;1.50;1.50;1.00
66336;PMS1003;53139;45.576;5.304;2023-04-24T01:28:19;1.00;1.00;1.00
66336;PMS1003;53139;45.576;5.304;2023-04-24T01:31:24;3.00;1.75;1.00
66336;PMS1003;53139;45.576;5.304;2023-04-24T01:34:28;1.00;0.00;0.00
66336;PMS1003;53139;45.576;5.304;2023-04-24T01:37:29;0.50;0.50;0.00
66336;PMS1003;53139;45.576;5.304;2023-04-24T01:40:32;1.00;1.00;1.00
66336;PMS1003;53139;45.576;5.304;2023-04-24T01:43:33;1.00;1.00;1.00
66336;PMS1003;53139;45.576;5.304;2023-04-24T01:46:34;3.00;2.00;1.00
66336;PMS1003;53139;45.576;5.304;2023-04-24T01:49:36;0.00;0.00;0.00
66336;PMS1003;53139;45.576;5.304;2023-04-24T01:52:38;0.00;0.00;0.00
66336;PMS1003;53139;45.576;5.304;2023-04-24T01:55:39;0.00;0.00;0.00
66336;PMS1003;53139;45.576;5.304;2023-04-24T01:58:41;0.75;0.75;0.75
66336;PMS1003;53139;45.576;5.304;2023-04-24T02:01:42;1.00;1.00;0.50
66336;PMS1003;53139;45.576;5.304;2023-04-24T02:04:42;1.00;0.00;0.00
66336;PMS1003;53139;45.576;5.304;2023-04-24T02:07:43;2.00;0.25;0.00
66336;PMS1003;53139;45.576;5.304;2023-04-24T02:10:43;0.00;0.00;0.00
66336;PMS1003;53139;45.576;5.304;2023-04-24T02:13:44;0.00;0.00;0.00
66336;PMS1003;53139;45.576;5.304;2023-04-24T02:16:44;0.00;0.00;0.00
66336;PMS1003;53139;45.576;5.304;2023-04-24T02:19:45;0.50;0.50;0.00
66336;PMS1003;53139;45.576;5.304;2023-04-24T02:22:46;0.00;0.00;0.00
66336;PMS1003;53139;45.576;5.304;2023-04-24T02:25:46;0.00;0.00;0.00
66336;PMS1003;53139;45.576;5.304;2023-04-24T02:28:47;0.50;0.50;0.00
66336;PMS1003;53139;45.576;5.304;2023-04-24T02:31:48;0.00;0.00;0.00
66336;PMS1003;53139;45.576;5.304;2023-04-24T02:34:49;0.75;0.00;0.00
66336;PMS1003;53139;45.576;5.304;2023-04-24T02:37:49;1.00;0.25;0.25
66336;PMS1003;53139;45.576;5.304;2023-04-24T02:40:50;0.00;0.00;0.00
66336;PMS1003;53139;45.576;5.304;2023-04-24T02:43:51;0.50;0.50;0.00
66336;PMS1003;53139;45.576;5.304;2023-04-24T02:46:51;0.50;0.00;0.00
66336;PMS1003;53139;45.576;5.304;2023-04-24T02:49:52;0.00;0.00;0.00
66336;PMS1003;53139;45.576;5.304;2023-04-24T02:52:52;0.75;0.50;0.00
66336;PMS1003;53139;45.576;5.304;2023-04-24T02:55:53;0.50;0.50;0.00
66336;PMS1003;53139;45.576;5.304;2023-04-24T02:58:54;0.00;0.00;0.00
66336;PMS1003;53139;45.576;5.304;2023-04-24T03:01:54;1.00;0.00;0.00
66336;PMS1003;53139;45.576;5.304;2023-04-24T03:04:55;0.75;0.75;0.25
66336;PMS1003;53139;45.576;5.304;2023-04-24T03:07:57;0.50;0.50;0.00
66336;PMS1003;53139;45.576;5.304;2023-04-24T03:10:57;1.00;1.00;0.75
66336;PMS1003;53139;45.576;5.304;2023-04-24T03:13:58;3.50;0.00;0.00
66336;PMS1003;53139;45.576;5.304;2023-04-24T03:16:59;0.00;0.00;0.00
66336;PMS1003;53139;45.576;5.304;2023-04-24T03:19:59;1.25;0.00;0.00
66336;PMS1003;53139;45.576;5.304;2023-04-24T03:23:00;1.50;0.50;0.00
66336;PMS1003;53139;45.576;5.304;2023-04-24T03:26:00;0.50;0.00;0.00
66336;PMS1003;53139;45.576;5.304;2023-04-24T03:29:02;1.00;0.00;0.00
66336;PMS1003;53139;45.576;5.304;2023-04-24T03:32:02;0.50;0.50;0.00
66336;PMS1003;53139;45.576;5.304;2023-04-24T03:35:03;1.00;1.00;0.00
66336;PMS1003;53139;45.576;5.304;2023-04-24T03:38:14;2.00;0.00;0.00
66336;PMS1003;53139;45.576;5.304;2023-04-24T03:41:24;0.00;0.00;0.00
66336;PMS1003;53139;45.576;5.304;2023-04-24T03:44:31;0.75;0.75;0.75
66336;PMS1003;53139;45.576;5.304;2023-04-24T03:47:58;1.00;1.00;0.00
66336;PMS1003;53139;45.576;5.304;2023-04-24T03:51:33;1.00;0.00;0.00
66336;PMS1003;53139;45.576;5.304;2023-04-24T03:54:49;0.50;0.50;0.00
66336;PMS1003;53139;45.576;5.304;2023-04-24T03:58:02;1.00;1.00;1.00
66336;PMS1003;53139;45.576;5.304;2023-04-24T04:01:14;1.00;1.00;0.50
66336;PMS1003;53139;45.576;5.304;2023-04-24T04:04:18;1.00;1.00;0.50
66336;PMS1003;53139;45.576;5.304;2023-04-24T04:07:23;1.50;1.50;1.00
66336;PMS1003;53139;45.576;5.304;2023-04-24T04:10:27;1.00;1.00;1.00
66336;PMS1003;53139;45.576;5.304;2023-04-24T04:13:40;2.00;1.00;0.75
66336;PMS1003;53139;45.576;5.304;2023-04-24T04:16:43;0.00;0.00;0.00
66336;PMS1003;53139;45.576;5.304;2023-04-24T04:20:08;1.00;1.00;1.00
66336;PMS1003;53139;45.576;5.304;2023-04-24T04:23:20;2.00;1.25;0.75
66336;PMS1003;53139;45.576;5.304;2023-04-24T04:27:20;1.00;0.50;0.25
66336;PMS1003;53139;45.576;5.304;2023-04-24T04:31:12;1.00;1.00;1.00
66336;PMS1003;53139;45.576;5.304;2023-04-24T04:35:25;4.25;2.00;1.00
66336;PMS1003;53139;45.576;5.304;2023-04-24T04:39:25;2.00;2.00;1.00
66336;PMS1003;53139;45.576;5.304;2023-04-24T04:43:37;2.50;2.50;2.00
66336;PMS1003;53139;45.576;5.304;2023-04-24T04:47:39;1.25;1.00;1.00
66336;PMS1003;53139;45.576;5.304;2023-04-24T04:51:33;2.25;2.25;2.00
66336;PMS1003;53139;45.576;5.304;2023-04-24T04:55:31;2.00;1.25;1.00
66336;PMS1003;53139;45.576;5.304;2023-04-24T04:59:10;1.25;1.25;1.00
66336;PMS1003;53139;45.576;5.304;2023-04-24T05:02:11;2.75;2.00;2.00
66336;PMS1003;53139;45.576;5.304;2023-04-24T05:10:22;3.00;2.50;2.00
66336;PMS1003;53139;45.576;5.304;2023-04-24T05:14:52;3.00;2.25;2.00
66336;PMS1003;53139;45.576;5.304;2023-04-24T05:22:57;4.00;4.00;3.00
66336;PMS1003;53139;45.576;5.304;2023-04-24T05:25:57;3.00;3.00;2.50
66336;PMS1003;53139;45.576;5.304;2023-04-24T05:28:58;3.25;3.00;2.25
66336;PMS1003;53139;45.576;5.304;2023-04-24T05:31:59;4.25;3.25;2.25
66336;PMS1003;53139;45.576;5.304;2023-04-24T05:35:00;4.00;4.00;3.50
66336;PMS1003;53139;45.576;5.304;2023-04-24T05:38:01;4.50;4.50;4.00
66336;PMS1003;53139;45.576;5.304;2023-04-24T05:41:01;5.00;4.00;2.50
66336;PMS1003;53139;45.576;5.304;2023-04-24T05:44:02;5.00;4.00;3.50
66336;PMS1003;53139;45.576;5.304;2023-04-24T05:47:02;2.25;2.25;2.00
66336;PMS1003;53139;45.576;5.304;2023-04-24T05:50:13;2.75;2.00;2.00
66336;PMS1003;53139;45.576;5.304;2023-04-24T05:53:47;3.50;3.00;2.00
66336;PMS1003;53139;45.576;5.304;2023-04-24T05:57:28;3.00;3.00;2.25
66336;PMS1003;53139;45.576;5.304;2023-04-24T06:01:02;3.00;3.00;2.25
66336;PMS1003;53139;45.576;5.304;2023-04-24T06:04:48;7.50;6.25;5.25
66336;PMS1003;53139;45.576;5.304;2023-04-24T06:08:34;2.00;2.00;2.00
66336;PMS1003;53139;45.576;5.304;2023-04-24T06:12:10;2.00;2.00;2.00
66336;PMS1003;53139;45.576;5.304;2023-04-24T06:15:57;4.00;3.25;2.75
66336;PMS1003;53139;45.576;5.304;2023-04-24T06:19:41;5.50;3.00;2.00
66336;PMS1003;53139;45.576;5.304;2023-04-24T06:23:24;3.75;3.75;2.75
66336;PMS1003;53139;45.576;5.304;2023-04-24T06:27:33;5.75;2.25;1.25
66336;PMS1003;53139;45.576;5.304;2023-04-24T06:31:52;2.00;2.00;2.00
66336;PMS1003;53139;45.576;5.304;2023-04-24T06:35:40;1.75;1.50;1.00
66336;PMS1003;53139;45.576;5.304;2023-04-24T06:43:58;4.25;4.00;3.25
66336;PMS1003;53139;45.576;5.304;2023-04-24T06:48:00;2.25;2.00;2.00
66336;PMS1003;53139;45.576;5.304;2023-04-24T06:51:26;7.25;6.25;4.50
66336;PMS1003;53139;45.576;5.304;2023-04-24T06:55:16;2.25;2.00;1.25
66336;PMS1003;53139;45.576;5.304;2023-04-24T06:58:27;1.50;1.00;1.00
66336;PMS1003;53139;45.576;5.304;2023-04-24T07:02:11;3.50;2.00;1.25
66336;PMS1003;53139;45.576;5.304;2023-04-24T07:05:48;3.00;2.00;2.00
66336;PMS1003;53139;45.576;5.304;2023-04-24T07:09:36;2.00;2.00;1.75
66336;PMS1003;53139;45.576;5.304;2023-04-24T07:13:20;6.75;2.00;1.75
66336;PMS1003;53139;45.576;5.304;2023-04-24T07:17:10;3.00;2.00;2.00
66336;PMS1003;53139;45.576;5.304;2023-04-24T07:21:02;2.50;2.00;1.00
66336;PMS1003;53139;45.576;5.304;2023-04-24T07:24:35;2.00;2.00;1.75
66336;PMS1003;53139;45.576;5.304;2023-04-24T07:28:14;3.00;2.25;2.00
66336;PMS1003;53139;45.576;5.304;2023-04-24T07:31:42;3.00;1.75;1.25
66336;PMS1003;53139;45.576;5.304;2023-04-24T07:35:05;3.00;3.00;3.00
66336;PMS1003;53139;45.576;5.304;2023-04-24T07:38:37;2.75;2.75;2.00
66336;PMS1003;53139;45.576;5.304;2023-04-24T07:42:15;1.00;1.00;1.00
66336;PMS1003;53139;45.576;5.304;2023-04-24T07:45:41;1.50;1.50;1.50
66336;PMS1003;53139;45.576;5.304;2023-04-24T07:48:45;2.50;2.00;1.75
66336;PMS1003;53139;45.576;5.304;2023-04-24T07:52:10;3.50;2.25;1.50
66336;PMS1003;53139;45.576;5.304;2023-04-24T07:55:27;3.75;3.75;3.00
66336;PMS1003;53139;45.576;5.304;2023-04-24T07:59:04;2.00;1.25;1.00
66336;PMS1003;53139;45.576;5.304;2023-04-24T08:02:44;3.25;3.00;2.75
66336;PMS1003;53139;45.576;5.304;2023-04-24T08:06:17;3.50;3.50;3.00
66336;PMS1003;53139;45.576;5.304;2023-04-24T08:09:50;3.00;3.00;3.00
66336;PMS1003;53139;45.576;5.304;2023-04-24T08:12:59;3.00;3.00;2.75
66336;PMS1003;53139;45.576;5.304;2023-04-24T08:16:00;3.00;3.00;2.00
66336;PMS1003;53139;45.576;5.304;2023-04-24T08:19:29;5.50;3.00;3.00
66336;PMS1003;53139;45.576;5.304;2023-04-24T08:23:05;4.00;3.00;3.00
66336;PMS1003;53139;45.576;5.304;2023-04-24T08:26:35;4.00;3.00;2.00
66336;PMS1003;53139;45.576;5.304;2023-04-24T08:29:36;3.00;3.00;2.00
66336;PMS1003;53139;45.576;5.304;2023-04-24T08:32:39;4.00;2.50;2.50
66336;PMS1003;53139;45.576;5.304;2023-04-24T08:35:40;3.00;3.00;3.00
66336;PMS1003;53139;45.576;5.304;2023-04-24T08:38:44;3.00;2.50;2.00
66336;PMS1003;53139;45.576;5.304;2023-04-24T08:42:04;3.75;3.00;3.00
66336;PMS1003;53139;45.576;5.304;2023-04-24T08:45:08;4.25;3.00;2.75
66336;PMS1003;53139;45.576;5.304;2023-04-24T08:48:09;3.00;1.50;1.50
66336;PMS1003;53139;45.576;5.304;2023-04-24T08:51:11;2.75;2.00;2.00
66336;PMS1003;53139;45.576;5.304;2023-04-24T08:54:12;3.50;2.50;2.25
66336;PMS1003;53139;45.576;5.304;2023-04-24T08:57:16;2.00;2.00;1.50
66336;PMS1003;53139;45.576;5.304;2023-04-24T09:00:18;2.00;2.00;1.25
66336;PMS1003;53139;45.576;5.304;2023-04-24T09:03:19;4.25;3.00;2.25
66336;PMS1003;53139;45.576;5.304;2023-04-24T09:06:21;2.25;2.25;2.00
66336;PMS1003;53139;45.576;5.304;2023-04-24T09:09:24;4.25;3.50;3.00
66336;PMS1003;53139;45.576;5.304;2023-04-24T09:12:25;3.00;3.00;2.00
66336;PMS1003;53139;45.576;5.304;2023-04-24T09:15:25;2.25;2.25;2.00
66336;PMS1003;53139;45.576;5.304;2023-04-24T09:18:26;2.75;2.75;2.75
66336;PMS1003;53139;45.576;5.304;2023-04-24T09:21:31;2.50;2.50;1.75
66336;PMS1003;53139;45.576;5.304;2023-04-24T09:24:33;4.50;4.50;4.00
66336;PMS1003;53139;45.576;5.304;2023-04-24T09:27:35;6.25;4.00;3.00
66336;PMS1003;53139;45.576;5.304;2023-04-24T09:30:35;2.00;2.00;1.50
66336;PMS1003;53139;45.576;5.304;2023-04-24T09:33:36;3.00;3.00;3.00
66336;PMS1003;53139;45.576;5.304;2023-04-24T09:36:41;6.25;6.00;5.00
66336;PMS1003;53139;45.576;5.304;2023-04-24T09:39:42;3.00;3.00;2.00
66336;PMS1003;53139;45.576;5.304;2023-04-24T09:42:43;2.50;2.00;1.75
66336;PMS1003;53139;45.576;5.304;2023-04-24T09:45:46;4.50;4.25;3.25
66336;PMS1003;53139;45.576;5.304;2023-04-24T09:48:46;5.50;3.00;1.75
66336;PMS1003;53139;45.576;5.304;2023-04-24T09:51:46;2.75;2.00;2.00
66336;PMS1003;53139;45.576;5.304;2023-04-24T09:54:52;1.75;1.75;1.75
66336;PMS1003;53139;45.576;5.304;2023-04-24T09:57:58;2.75;2.75;2.75
66336;PMS1003;53139;45.576;5.304;2023-04-24T10:01:00;2.00;2.00;1.50
66336;PMS1003;53139;45.576;5.304;2023-04-24T10:04:00;3.75;1.75;1.75
66336;PMS1003;53139;45.576;5.304;2023-04-24T10:07:05;1.00;1.00;0.75
66336;PMS1003;53139;45.576;5.304;2023-04-24T10:10:06;1.75;1.75;1.25
66336;PMS1003;53139;45.576;5.304;2023-04-24T10:13:12;1.75;1.75;1.50
66336;PMS1003;53139;45.576;5.304;2023-04-24T10:16:17;2.00;2.00;1.50
66336;PMS1003;53139;45.576;5.304;2023-04-24T10:19:25;2.25;2.25;1.25
66336;PMS1003;53139;45.576;5.304;2023-04-24T10:22:26;2.50;2.50;2.00
66336;PMS1003;53139;45.576;5.304;2023-04-24T10:25:31;2.00;1.00;1.00
66336;PMS1003;53139;45.576;5.304;2023-04-24T10:28:34;3.25;3.25;3.00
66336;PMS1003;53139;45.576;5.304;2023-04-24T10:31:37;2.25;2.25;1.50
66336;PMS1003;53139;45.576;5.304;2023-04-24T10:34:38;2.50;1.75;1.75
66336;PMS1003;53139;45.576;5.304;2023-04-24T10:41:11;2.00;2.00;1.75
66336;PMS1003;53139;45.576;5.304;2023-04-24T10:44:24;1.75;1.75;1.25
66336;PMS1003;53139;45.576;5.304;2023-04-24T10:48:00;2.00;2.00;2.00
66336;PMS1003;53139;45.576;5.304;2023-04-24T10:51:14;2.00;1.00;1.00
66336;PMS1003;53139;45.576;5.304;2023-04-24T10:54:26;1.75;1.75;1.00
66336;PMS1003;53139;45.576;5.304;2023-04-24T10:57:33;2.25;2.25;2.00
66336;PMS1003;53139;45.576;5.304;2023-04-24T11:00:37;1.75;1.75;1.00
66336;PMS1003;53139;45.576;5.304;2023-04-24T11:04:00;3.50;2.00;2.00
66336;PMS1003;53139;45.576;5.304;2023-04-24T11:07:21;2.00;2.00;1.25
66336;PMS1003;53139;45.576;5.304;2023-04-24T11:16:54;3.00;3.00;2.00
66336;PMS1003;53139;45.576;5.304;2023-04-24T11:20:16;1.25;1.25;1.00
66336;PMS1003;53139;45.576;5.304;2023-04-24T11:23:28;2.00;2.00;1.75
66336;PMS1003;53139;45.576;5.304;2023-04-24T11:27:05;1.50;1.50;1.00
66336;PMS1003;53139;45.576;5.304;2023-04-24T11:30:29;1.50;1.50;1.00
66336;PMS1003;53139;45.576;5.304;2023-04-24T11:33:35;1.00;1.00;1.00
66336;PMS1003;53139;45.576;5.304;2023-04-24T11:36:43;1.00;1.00;1.00
66336;PMS1003;53139;45.576;5.304;2023-04-24T11:40:12;2.00;2.00;2.00
66336;PMS1003;53139;45.576;5.304;2023-04-24T11:43:23;2.00;2.00;2.00
66336;PMS1003;53139;45.576;5.304;2023-04-24T11:46:37;1.00;1.00;1.00
66336;PMS1003;53139;45.576;5.304;2023-04-24T11:49:41;1.00;1.00;0.75
66336;PMS1003;53139;45.576;5.304;2023-04-24T11:52:50;2.75;1.25;1.25
66336;PMS1003;53139;45.576;5.304;2023-04-24T11:56:04;1.75;1.75;1.00
66336;PMS1003;53139;45.576;5.304;2023-04-24T11:59:05;1.50;1.50;1.00
66336;PMS1003;53139;45.576;5.304;2023-04-24T12:02:24;1.75;1.75;1.00
66336;PMS1003;53139;45.576;5.304;2023-04-24T12:05:30;2.00;2.00;1.75
66336;PMS1003;53139;45.576;5.304;2023-04-24T12:08:39;1.75;1.75;1.25
66336;PMS1003;53139;45.576;5.304;2023-04-24T12:11:52;2.75;2.00;2.00
66336;PMS1003;53139;45.576;5.304;2023-04-24T12:14:57;2.50;0.75;0.75
66336;PMS1003;53139;45.576;5.304;2023-04-24T12:17:58;2.25;1.50;1.50
66336;PMS1003;53139;45.576;5.304;2023-04-24T12:21:18;2.00;2.00;1.50
66336;PMS1003;53139;45.576;5.304;2023-04-24T12:24:20;2.00;2.00;2.00
66336;PMS1003;53139;45.576;5.304;2023-04-24T12:27:21;2.00;2.00;1.25
66336;PMS1003;53139;45.576;5.304;2023-04-24T12:30:26;4.00;3.00;2.75
66336;PMS1003;53139;45.576;5.304;2023-04-24T12:33:34;1.00;1.00;1.00
66336;PMS1003;53139;45.576;5.304;2023-04-24T12:36:38;2.00;2.00;1.00
66336;PMS1003;53139;45.576;5.304;2023-04-24T12:39:57;4.00;2.00;2.00
66336;PMS1003;53139;45.576;5.304;2023-04-24T12:43:12;1.25;1.25;1.00
66336;PMS1003;53139;45.576;5.304;2023-04-24T12:46:18;4.00;2.00;2.00
66336;PMS1003;53139;45.576;5.304;2023-04-24T12:49:24;2.00;2.00;2.00
66336;PMS1003;53139;45.576;5.304;2023-04-24T12:52:26;3.25;2.25;2.25
66336;PMS1003;53139;45.576;5.304;2023-04-24T12:55:28;1.75;1.25;1.00
66336;PMS1003;53139;45.576;5.304;2023-04-24T12:58:29;1.50;1.00;1.00
66336;PMS1003;53139;45.576;5.304;2023-04-24T13:01:30;3.00;2.00;1.75
66336;PMS1003;53139;45.576;5.304;2023-04-24T13:04:31;2.00;1.00;1.00
66336;PMS1003;53139;45.576;5.304;2023-04-24T13:07:32;2.00;2.00;1.00
66336;PMS1003;53139;45.576;5.304;2023-04-24T13:10:33;3.50;2.00;1.75
66336;PMS1003;53139;45.576;5.304;2023-04-24T13:13:45;2.75;1.25;1.00
66336;PMS1003;53139;45.576;5.304;2023-04-24T13:16:46;2.75;1.25;1.00
66336;PMS1003;53139;45.576;5.304;2023-04-24T13:19:46;2.00;2.00;2.00
66336;PMS1003;53139;45.576;5.304;2023-04-24T13:22:50;2.50;2.00;1.75
66336;PMS1003;53139;45.576;5.304;2023-04-24T13:26:03;2.75;2.75;2.00
66336;PMS1003;53139;45.576;5.304;2023-04-24T13:29:03;4.00;2.00;2.00
66336;PMS1003;53139;45.576;5.304;2023-04-24T13:32:04;2.00;1.00;0.00
66336;PMS1003;53139;45.576;5.304;2023-04-24T13:35:19;1.50;1.50;1.00
66336;PMS1003;53139;45.576;5.304;2023-04-24T13:38:33;2.00;2.00;1.00
66336;PMS1003;53139;45.576;5.304;2023-04-24T13:41:40;1.00;1.00;0.50
66336;PMS1003;53139;45.576;5.304;2023-04-24T13:45:07;3.00;2.00;2.00
66336;PMS1003;53139;45.576;5.304;2023-04-24T13:48:53;3.00;2.00;1.50
66336;PMS1003;53139;45.576;5.304;2023-04-24T13:52:23;2.00;1.25;1.00
66336;PMS1003;53139;45.576;5.304;2023-04-24T13:55:55;2.00;2.00;1.50
66336;PMS1003;53139;45.576;5.304;2023-04-24T13:59:30;1.25;1.25;1.00
66336;PMS1003;53139;45.576;5.304;2023-04-24T14:03:03;2.00;1.25;1.00
66336;PMS1003;53139;45.576;5.304;2023-04-24T14:06:30;2.00;2.00;1.75
66336;PMS1003;53139;45.576;5.304;2023-04-24T14:10:00;1.00;1.00;1.00
66336;PMS1003;53139;45.576;5.304;2023-04-24T14:13:22;2.00;0.00;0.00
66336;PMS1003;53139;45.576;5.304;2023-04-24T14:16:49;1.75;1.75;1.00
66336;PMS1003;53139;45.576;5.304;2023-04-24T14:20:15;3.00;3.00;2.00
66336;PMS1003;53139;45.576;5.304;2023-04-24T14:23:16;1.50;1.00;1.00
66336;PMS1003;53139;45.576;5.304;2023-04-24T14:26:17;3.00;1.50;1.00
66336;PMS1003;53139;45.576;5.304;2023-04-24T14:29:18;2.00;2.00;1.25
66336;PMS1003;53139;45.576;5.304;2023-04-24T14:32:39;2.75;2.00;1.00
66336;PMS1003;53139;45.576;5.304;2023-04-24T14:36:15;3.00;1.25;1.00
66336;PMS1003;53139;45.576;5.304;2023-04-24T14:39:42;1.00;1.00;1.00
66336;PMS1003;53139;45.576;5.304;2023-04-24T14:42:56;3.00;3.00;2.25
66336;PMS1003;53139;45.576;5.304;2023-04-24T14:45:57;3.25;2.00;1.50
66336;PMS1003;53139;45.576;5.304;2023-04-24T14:49:04;2.75;2.75;2.00
66336;PMS1003;53139;45.576;5.304;2023-04-24T14:52:17;1.00;1.00;1.00
66336;PMS1003;53139;45.576;5.304;2023-04-24T14:55:31;3.00;2.00;1.75
66336;PMS1003;53139;45.576;5.304;2023-04-24T14:58:36;4.00;2.25;2.00
66336;PMS1003;53139;45.576;5.304;2023-04-24T15:01:43;2.00;1.00;1.00
66336;PMS1003;53139;45.576;5.304;2023-04-24T15:04:47;2.00;2.00;2.00
66336;PMS1003;53139;45.576;5.304;2023-04-24T15:08:01;0.25;0.00;0.00
66336;PMS1003;53139;45.576;5.304;2023-04-24T15:11:09;2.25;2.00;1.00
66336;PMS1003;53139;45.576;5.304;2023-04-24T15:14:22;3.00;2.00;2.00
66336;PMS1003;53139;45.576;5.304;2023-04-24T15:17:32;1.50;1.50;1.50
66336;PMS1003;53139;45.576;5.304;2023-04-24T15:20:58;1.25;1.25;1.00
66336;PMS1003;53139;45.576;5.304;2023-04-24T15:24:13;5.25;4.25;4.00
66336;PMS1003;53139;45.576;5.304;2023-04-24T15:28:01;1.00;1.00;0.50
66336;PMS1003;53139;45.576;5.304;2023-04-24T15:32:15;3.00;2.50;2.00
66336;PMS1003;53139;45.576;5.304;2023-04-24T15:36:31;2.00;1.75;1.50
66336;PMS1003;53139;45.576;5.304;2023-04-24T15:44:39;2.75;2.00;2.00
66336;PMS1003;53139;45.576;5.304;2023-04-24T15:52:56;2.00;2.00;2.00
66336;PMS1003;53139;45.576;5.304;2023-04-24T15:57:11;1.75;1.75;1.00
66336;PMS1003;53139;45.576;5.304;2023-04-24T16:01:28;1.00;1.00;1.00
66336;PMS1003;53139;45.576;5.304;2023-04-24T16:05:33;1.00;1.00;1.00
66336;PMS1003;53139;45.576;5.304;2023-04-24T16:08:34;2.00;2.00;2.00
66336;PMS1003;53139;45.576;5.304;2023-04-24T16:11:35;2.00;2.00;1.75
66336;PMS1003;53139;45.576;5.304;2023-04-24T16:14:36;3.00;3.00;2.00
66336;PMS1003;53139;45.576;5.304;2023-04-24T16:17:37;1.00;1.00;1.00
66336;PMS1003;53139;45.576;5.304;2023-04-24T16:20:38;1.25;1.25;1.00
66336;PMS1003;53139;45.576;5.304;2023-04-24T16:23:42;0.75;0.75;0.75
66336;PMS1003;53139;45.576;5.304;2023-04-24T16:26:54;2.00;2.00;2.00
66336;PMS1003;53139;45.576;5.304;2023-04-24T16:29:55;1.75;1.75;1.00
66336;PMS1003;53139;45.576;5.304;2023-04-24T16:32:55;3.00;2.00;1.00
66336;PMS1003;53139;45.576;5.304;2023-04-24T16:36:03;0.00;0.00;0.00
66336;PMS1003;53139;45.576;5.304;2023-04-24T16:39:22;3.50;3.50;3.00
66336;PMS1003;53139;45.576;5.304;2023-04-24T16:42:44;5.50;4.75;4.00
66336;PMS1003;53139;45.576;5.304;2023-04-24T16:45:48;2.75;2.75;2.50
66336;PMS1003;53139;45.576;5.304;2023-04-24T16:48:49;4.50;3.00;2.00
66336;PMS1003;53139;45.576;5.304;2023-04-24T16:51:56;3.25;3.00;2.25
66336;PMS1003;53139;45.576;5.304;2023-04-24T16:55:01;3.50;3.50;3.00
66336;PMS1003;53139;45.576;5.304;2023-04-24T16:58:01;3.25;3.00;2.00
66336;PMS1003;53139;45.576;5.304;2023-04-24T17:01:02;2.75;2.00;1.75
66336;PMS1003;53139;45.576;5.304;2023-04-24T17:04:02;3.00;2.00;1.75
66336;PMS1003;53139;45.576;5.304;2023-04-24T17:07:03;3.00;3.00;2.25
66336;PMS1003;53139;45.576;5.304;2023-04-24T17:10:03;5.25;3.50;3.00
66336;PMS1003;53139;45.576;5.304;2023-04-24T17:13:08;4.00;3.00;2.75
66336;PMS1003;53139;45.576;5.304;2023-04-24T17:16:14;4.25;3.25;2.75
66336;PMS1003;53139;45.576;5.304;2023-04-24T17:19:21;3.75;2.75;2.25
66336;PMS1003;53139;45.576;5.304;2023-04-24T17:22:51;5.25;4.50;3.50
66336;PMS1003;53139;45.576;5.304;2023-04-24T17:25:52;3.50;3.50;3.25
66336;PMS1003;53139;45.576;5.304;2023-04-24T17:28:53;3.25;3.25;3.00
66336;PMS1003;53139;45.576;5.304;2023-04-24T17:31:54;3.25;3.00;2.25
66336;PMS1003;53139;45.576;5.304;2023-04-24T17:34:55;4.75;3.25;3.00
66336;PMS1003;53139;45.576;5.304;2023-04-24T17:38:10;2.75;2.75;2.25
66336;PMS1003;53139;45.576;5.304;2023-04-24T17:41:10;3.50;3.50;3.00
66336;PMS1003;53139;45.576;5.304;2023-04-24T17:44:15;4.75;4.25;4.00
66336;PMS1003;53139;45.576;5.304;2023-04-24T17:47:20;3.50;3.50;3.25
66336;PMS1003;53139;45.576;5.304;2023-04-24T17:50:32;3.75;3.50;2.50
66336;PMS1003;53139;45.576;5.304;2023-04-24T17:54:04;3.75;3.75;3.00
66336;PMS1003;53139;45.576;5.304;2023-04-24T17:57:32;3.50;3.25;2.75
66336;PMS1003;53139;45.576;5.304;2023-04-24T18:52:33;6.00;4.75;3.25
66336;PMS1003;53139;45.576;5.304;2023-04-24T18:56:41;9.50;6.50;5.25
66336;PMS1003;53139;45.576;5.304;2023-04-24T19:00:33;10.25;6.75;5.00
66336;PMS1003;53139;45.576;5.304;2023-04-24T19:04:09;10.75;6.75;5.50
66336;PMS1003;53139;45.576;5.304;2023-04-24T19:07:58;10.50;8.75;7.00
66336;PMS1003;53139;45.576;5.304;2023-04-24T19:11:35;14.50;13.50;10.00
66336;PMS1003;53139;45.576;5.304;2023-04-24T19:15:17;13.50;11.50;8.00
66336;PMS1003;53139;45.576;5.304;2023-04-24T19:18:53;18.75;15.50;10.25
66336;PMS1003;53139;45.576;5.304;2023-04-24T19:22:00;18.25;17.00;12.00
66336;PMS1003;53139;45.576;5.304;2023-04-24T19:25:09;16.00;15.75;11.25
66336;PMS1003;53139;45.576;5.304;2023-04-24T19:28:38;12.75;11.00;9.25
66336;PMS1003;53139;45.576;5.304;2023-04-24T19:31:38;18.00;13.75;11.00
66336;PMS1003;53139;45.576;5.304;2023-04-24T19:34:48;16.50;11.00;9.00
66336;PMS1003;53139;45.576;5.304;2023-04-24T19:37:49;14.00;10.75;7.75
66336;PMS1003;53139;45.576;5.304;2023-04-24T19:40:57;12.75;11.50;8.50
66336;PMS1003;53139;45.576;5.304;2023-04-24T19:44:04;12.00;11.00;7.00
66336;PMS1003;53139;45.576;5.304;2023-04-24T19:47:24;12.75;9.75;8.00
66336;PMS1003;53139;45.576;5.304;2023-04-24T19:50:45;15.50;9.50;7.00
66336;PMS1003;53139;45.576;5.304;2023-04-24T19:53:49;13.75;10.00;7.00
66336;PMS1003;53139;45.576;5.304;2023-04-24T19:56:52;10.75;8.75;6.00
66336;PMS1003;53139;45.576;5.304;2023-04-24T19:59:53;10.00;8.00;6.25
66336;PMS1003;53139;45.576;5.304;2023-04-24T20:02:55;8.75;7.00;6.00
66336;PMS1003;53139;45.576;5.304;2023-04-24T20:05:56;11.75;10.00;7.75
66336;PMS1003;53139;45.576;5.304;2023-04-24T20:08:57;9.25;8.50;6.25
66336;PMS1003;53139;45.576;5.304;2023-04-24T20:11:58;11.75;8.00;6.00
66336;PMS1003;53139;45.576;5.304;2023-04-24T20:15:02;8.00;7.00;6.00
66336;PMS1003;53139;45.576;5.304;2023-04-24T20:18:03;11.00;11.00;8.00
66336;PMS1003;53139;45.576;5.304;2023-04-24T20:21:04;19.25;14.50;10.75